sensor_id;sensor_type;location;lat;lon;timestamp;temperature;humidity
34135;DHT22;20410;55.578;12.968;2024-02-21T00:01:23;7.50;99.90
34135;DHT22;20410;55.578;12.968;2024-02-21T00:03:48;7.50;96.40
34135;DHT22;20410;55.578;12.968;2024-02-21T00:06:14;7.50;97.50
34135;DHT22;20410;55.578;12.968;2024-02-21T00:08:39;7.50;99.70
34135;DHT22;20410;55.578;12.968;2024-02-21T00:11:05;7.50;96.10
34135;DHT22;20410;55.578;12.968;2024-02-21T00:13:31;7.40;87.60
34135;DHT22;20410;55.578;12.968;2024-02-21T00:15:56;7.50;99.90
34135;DHT22;20410;55.578;12.968;2024-02-21T00:18:22;7.50;97.90
34135;DHT22;20410;55.578;12.968;2024-02-21T00:20:48;7.50;85.40
34135;DHT22;20410;55.578;12.968;2024-02-21T00:23:13;7.40;89.60
34135;DHT22;20410;55.578;12.968;2024-02-21T00:25:39;7.40;94.00
34135;DHT22;20410;55.578;12.968;2024-02-21T00:28:05;7.40;96.30
34135;DHT22;20410;55.578;12.968;2024-02-21T00:30:31;7.40;99.40
34135;DHT22;20410;55.578;12.968;2024-02-21T00:32:57;7.40;99.90
34135;DHT22;20410;55.578;12.968;2024-02-21T00:35:22;7.40;99.90
34135;DHT22;20410;55.578;12.968;2024-02-21T00:37:48;7.50;99.90
34135;DHT22;20410;55.578;12.968;2024-02-21T00:40:13;7.50;99.90
34135;DHT22;20410;55.578;12.968;2024-02-21T00:42:45;7.50;99.90
34135;DHT22;20410;55.578;12.968;2024-02-21T00:45:11;7.50;99.90
34135;DHT22;20410;55.578;12.968;2024-02-21T00:47:37;7.50;99.90
34135;DHT22;20410;55.578;12.968;2024-02-21T00:50:02;7.60;99.90
34135;DHT22;20410;55.578;12.968;2024-02-21T00:52:28;7.50;99.90
34135;DHT22;20410;55.578;12.968;2024-02-21T00:54:54;7.50;99.90
34135;DHT22;20410;55.578;12.968;2024-02-21T00:57:19;7.50;99.90
34135;DHT22;20410;55.578;12.968;2024-02-21T00:59:45;7.50;99.90
34135;DHT22;20410;55.578;12.968;2024-02-21T01:02:11;7.50;99.90
34135;DHT22;20410;55.578;12.968;2024-02-21T01:04:36;7.50;99.90
34135;DHT22;20410;55.578;12.968;2024-02-21T01:07:02;7.50;99.90
34135;DHT22;20410;55.578;12.968;2024-02-21T01:09:27;7.50;99.90
34135;DHT22;20410;55.578;12.968;2024-02-21T01:11:53;7.40;99.90
34135;DHT22;20410;55.578;12.968;2024-02-21T01:14:19;7.40;99.90
34135;DHT22;20410;55.578;12.968;2024-02-21T01:16:44;7.40;99.90
34135;DHT22;20410;55.578;12.968;2024-02-21T01:19:10;7.40;99.90
34135;DHT22;20410;55.578;12.968;2024-02-21T01:21:35;7.40;99.90
34135;DHT22;20410;55.578;12.968;2024-02-21T01:24:01;7.40;99.90
34135;DHT22;20410;55.578;12.968;2024-02-21T01:26:26;7.40;99.90
34135;DHT22;20410;55.578;12.968;2024-02-21T01:28:52;7.40;99.90
34135;DHT22;20410;55.578;12.968;2024-02-21T01:31:18;7.40;99.90
34135;DHT22;20410;55.578;12.968;2024-02-21T01:33:43;7.40;99.90
34135;DHT22;20410;55.578;12.968;2024-02-21T01:36:09;7.30;99.90
34135;DHT22;20410;55.578;12.968;2024-02-21T01:38:34;7.40;99.90
34135;DHT22;20410;55.578;12.968;2024-02-21T01:41:00;7.40;99.90
34135;DHT22;20410;55.578;12.968;2024-02-21T01:43:26;7.40;99.90
34135;DHT22;20410;55.578;12.968;2024-02-21T01:45:53;7.40;99.90
34135;DHT22;20410;55.578;12.968;2024-02-21T01:48:20;7.40;99.90
34135;DHT22;20410;55.578;12.968;2024-02-21T01:50:47;7.40;99.90
34135;DHT22;20410;55.578;12.968;2024-02-21T01:53:14;7.40;99.90
34135;DHT22;20410;55.578;12.968;2024-02-21T01:55:45;7.40;99.90
34135;DHT22;20410;55.578;12.968;2024-02-21T01:58:15;7.40;99.90
34135;DHT22;20410;55.578;12.968;2024-02-21T02:00:45;7.40;99.90
34135;DHT22;20410;55.578;12.968;2024-02-21T02:03:12;7.40;99.90
34135;DHT22;20410;55.578;12.968;2024-02-21T02:05:48;7.40;99.90
34135;DHT22;20410;55.578;12.968;2024-02-21T02:08:21;7.40;99.90
34135;DHT22;20410;55.578;12.968;2024-02-21T02:10:50;7.40;99.90
34135;DHT22;20410;55.578;12.968;2024-02-21T02:13:15;7.40;99.90
34135;DHT22;20410;55.578;12.968;2024-02-21T02:15:42;7.50;99.90
34135;DHT22;20410;55.578;12.968;2024-02-21T02:18:09;7.50;99.90
34135;DHT22;20410;55.578;12.968;2024-02-21T02:20:35;7.40;99.90
34135;DHT22;20410;55.578;12.968;2024-02-21T02:25:43;7.40;99.90
34135;DHT22;20410;55.578;12.968;2024-02-21T02:28:10;7.40;99.90
34135;DHT22;20410;55.578;12.968;2024-02-21T02:30:36;7.40;99.90
34135;DHT22;20410;55.578;12.968;2024-02-21T02:33:06;7.40;99.90
34135;DHT22;20410;55.578;12.968;2024-02-21T02:35:32;7.40;99.90
34135;DHT22;20410;55.578;12.968;2024-02-21T02:37:57;7.40;99.90
34135;DHT22;20410;55.578;12.968;2024-02-21T02:40:23;7.40;99.90
34135;DHT22;20410;55.578;12.968;2024-02-21T02:42:50;7.40;99.90
34135;DHT22;20410;55.578;12.968;2024-02-21T02:45:17;7.40;99.90
34135;DHT22;20410;55.578;12.968;2024-02-21T02:47:44;7.40;99.90
34135;DHT22;20410;55.578;12.968;2024-02-21T02:50:11;7.40;99.90
34135;DHT22;20410;55.578;12.968;2024-02-21T02:52:37;7.40;99.90
34135;DHT22;20410;55.578;12.968;2024-02-21T02:55:04;7.40;99.90
34135;DHT22;20410;55.578;12.968;2024-02-21T02:57:29;7.40;99.90
34135;DHT22;20410;55.578;12.968;2024-02-21T02:59:55;7.40;99.90
34135;DHT22;20410;55.578;12.968;2024-02-21T03:02:21;7.30;99.90
34135;DHT22;20410;55.578;12.968;2024-02-21T03:04:46;7.30;99.90
34135;DHT22;20410;55.578;12.968;2024-02-21T03:07:13;7.30;99.90
34135;DHT22;20410;55.578;12.968;2024-02-21T03:09:39;7.30;99.90
34135;DHT22;20410;55.578;12.968;2024-02-21T03:12:05;7.30;99.90
34135;DHT22;20410;55.578;12.968;2024-02-21T03:14:34;7.30;99.90
34135;DHT22;20410;55.578;12.968;2024-02-21T03:17:00;7.30;99.90
34135;DHT22;20410;55.578;12.968;2024-02-21T03:19:26;7.20;99.90
34135;DHT22;20410;55.578;12.968;2024-02-21T03:21:52;7.30;99.90
34135;DHT22;20410;55.578;12.968;2024-02-21T03:24:19;7.30;99.90
34135;DHT22;20410;55.578;12.968;2024-02-21T03:26:45;7.30;99.90
34135;DHT22;20410;55.578;12.968;2024-02-21T03:29:15;7.30;99.90
34135;DHT22;20410;55.578;12.968;2024-02-21T03:31:41;7.30;99.90
34135;DHT22;20410;55.578;12.968;2024-02-21T03:34:07;7.30;99.90
34135;DHT22;20410;55.578;12.968;2024-02-21T03:36:33;7.30;99.90
34135;DHT22;20410;55.578;12.968;2024-02-21T03:38:59;7.40;99.90
34135;DHT22;20410;55.578;12.968;2024-02-21T03:41:24;7.40;99.90
34135;DHT22;20410;55.578;12.968;2024-02-21T03:43:50;7.40;99.90
34135;DHT22;20410;55.578;12.968;2024-02-21T03:46:16;7.40;99.90
34135;DHT22;20410;55.578;12.968;2024-02-21T03:48:41;7.40;99.90
34135;DHT22;20410;55.578;12.968;2024-02-21T03:51:07;7.40;99.90
34135;DHT22;20410;55.578;12.968;2024-02-21T03:53:33;7.40;99.90
34135;DHT22;20410;55.578;12.968;2024-02-21T03:56:01;7.40;99.90
34135;DHT22;20410;55.578;12.968;2024-02-21T03:58:28;7.30;99.90
34135;DHT22;20410;55.578;12.968;2024-02-21T04:00:54;7.30;99.90
34135;DHT22;20410;55.578;12.968;2024-02-21T04:03:19;7.30;99.90
34135;DHT22;20410;55.578;12.968;2024-02-21T04:05:45;7.20;99.90
34135;DHT22;20410;55.578;12.968;2024-02-21T04:08:11;7.20;99.90
34135;DHT22;20410;55.578;12.968;2024-02-21T04:10:36;7.20;99.90
34135;DHT22;20410;55.578;12.968;2024-02-21T04:13:03;7.30;99.90
34135;DHT22;20410;55.578;12.968;2024-02-21T04:15:29;7.20;99.90
34135;DHT22;20410;55.578;12.968;2024-02-21T04:17:54;7.30;99.90
34135;DHT22;20410;55.578;12.968;2024-02-21T04:20:20;7.30;99.90
34135;DHT22;20410;55.578;12.968;2024-02-21T04:22:46;7.30;99.90
34135;DHT22;20410;55.578;12.968;2024-02-21T04:25:12;7.30;99.90
34135;DHT22;20410;55.578;12.968;2024-02-21T04:27:39;7.30;99.90
34135;DHT22;20410;55.578;12.968;2024-02-21T04:30:06;7.30;99.90
34135;DHT22;20410;55.578;12.968;2024-02-21T04:32:32;7.30;99.90
34135;DHT22;20410;55.578;12.968;2024-02-21T04:34:57;7.30;99.90
34135;DHT22;20410;55.578;12.968;2024-02-21T04:37:23;7.30;99.90
34135;DHT22;20410;55.578;12.968;2024-02-21T04:39:49;7.30;99.90
34135;DHT22;20410;55.578;12.968;2024-02-21T04:42:15;7.30;99.90
34135;DHT22;20410;55.578;12.968;2024-02-21T04:44:41;7.30;99.90
34135;DHT22;20410;55.578;12.968;2024-02-21T04:47:07;7.30;99.90
34135;DHT22;20410;55.578;12.968;2024-02-21T04:49:33;7.30;99.90
34135;DHT22;20410;55.578;12.968;2024-02-21T04:51:59;7.40;99.90
34135;DHT22;20410;55.578;12.968;2024-02-21T04:54:24;7.40;99.90
34135;DHT22;20410;55.578;12.968;2024-02-21T04:56:51;7.40;99.90
34135;DHT22;20410;55.578;12.968;2024-02-21T04:59:16;7.40;99.90
34135;DHT22;20410;55.578;12.968;2024-02-21T05:01:42;7.50;99.90
34135;DHT22;20410;55.578;12.968;2024-02-21T05:04:08;7.50;99.90
34135;DHT22;20410;55.578;12.968;2024-02-21T05:06:40;7.50;99.90
34135;DHT22;20410;55.578;12.968;2024-02-21T05:09:07;7.40;99.90
34135;DHT22;20410;55.578;12.968;2024-02-21T05:11:34;7.40;99.90
34135;DHT22;20410;55.578;12.968;2024-02-21T05:14:00;7.50;99.90
34135;DHT22;20410;55.578;12.968;2024-02-21T05:16:26;7.50;99.90
34135;DHT22;20410;55.578;12.968;2024-02-21T05:18:51;7.50;99.90
34135;DHT22;20410;55.578;12.968;2024-02-21T05:21:17;7.50;99.90
34135;DHT22;20410;55.578;12.968;2024-02-21T05:23:43;7.50;99.90
34135;DHT22;20410;55.578;12.968;2024-02-21T05:26:08;7.50;99.90
34135;DHT22;20410;55.578;12.968;2024-02-21T05:28:34;7.50;99.90
34135;DHT22;20410;55.578;12.968;2024-02-21T05:31:00;7.50;99.90
34135;DHT22;20410;55.578;12.968;2024-02-21T05:33:26;7.50;99.90
34135;DHT22;20410;55.578;12.968;2024-02-21T05:35:51;7.50;99.90
34135;DHT22;20410;55.578;12.968;2024-02-21T05:38:17;7.50;99.90
34135;DHT22;20410;55.578;12.968;2024-02-21T05:40:44;7.50;99.90
34135;DHT22;20410;55.578;12.968;2024-02-21T05:43:10;7.40;99.90
34135;DHT22;20410;55.578;12.968;2024-02-21T05:45:36;7.40;99.90
34135;DHT22;20410;55.578;12.968;2024-02-21T05:48:03;7.30;99.90
34135;DHT22;20410;55.578;12.968;2024-02-21T05:50:28;7.30;99.90
34135;DHT22;20410;55.578;12.968;2024-02-21T05:52:54;7.20;99.90
34135;DHT22;20410;55.578;12.968;2024-02-21T05:55:21;7.20;99.90
34135;DHT22;20410;55.578;12.968;2024-02-21T05:57:47;7.20;99.90
34135;DHT22;20410;55.578;12.968;2024-02-21T06:00:13;7.10;99.90
34135;DHT22;20410;55.578;12.968;2024-02-21T06:02:39;7.10;99.90
34135;DHT22;20410;55.578;12.968;2024-02-21T06:05:05;7.10;99.90
34135;DHT22;20410;55.578;12.968;2024-02-21T06:07:33;7.20;99.90
34135;DHT22;20410;55.578;12.968;2024-02-21T06:09:58;7.10;99.90
34135;DHT22;20410;55.578;12.968;2024-02-21T06:12:24;7.20;99.90
34135;DHT22;20410;55.578;12.968;2024-02-21T06:14:49;7.20;99.90
34135;DHT22;20410;55.578;12.968;2024-02-21T06:17:15;7.20;99.90
34135;DHT22;20410;55.578;12.968;2024-02-21T06:19:42;7.20;99.90
34135;DHT22;20410;55.578;12.968;2024-02-21T06:22:08;7.20;99.90
34135;DHT22;20410;55.578;12.968;2024-02-21T06:24:35;7.20;99.90
34135;DHT22;20410;55.578;12.968;2024-02-21T06:27:02;7.20;99.90
34135;DHT22;20410;55.578;12.968;2024-02-21T06:29:27;7.20;99.90
34135;DHT22;20410;55.578;12.968;2024-02-21T06:31:53;7.10;99.90
34135;DHT22;20410;55.578;12.968;2024-02-21T06:34:18;7.30;99.90
34135;DHT22;20410;55.578;12.968;2024-02-21T06:36:45;7.30;99.90
34135;DHT22;20410;55.578;12.968;2024-02-21T06:39:10;7.30;99.90
34135;DHT22;20410;55.578;12.968;2024-02-21T06:41:37;7.30;99.90
34135;DHT22;20410;55.578;12.968;2024-02-21T06:44:03;7.30;99.90
34135;DHT22;20410;55.578;12.968;2024-02-21T06:46:29;7.30;99.90
34135;DHT22;20410;55.578;12.968;2024-02-21T06:48:55;7.40;99.90
34135;DHT22;20410;55.578;12.968;2024-02-21T06:51:24;7.40;99.90
34135;DHT22;20410;55.578;12.968;2024-02-21T06:53:53;7.40;99.90
34135;DHT22;20410;55.578;12.968;2024-02-21T06:56:19;7.40;99.90
34135;DHT22;20410;55.578;12.968;2024-02-21T06:58:45;7.40;99.90
34135;DHT22;20410;55.578;12.968;2024-02-21T07:01:10;7.30;99.90
34135;DHT22;20410;55.578;12.968;2024-02-21T07:03:36;7.40;99.90
34135;DHT22;20410;55.578;12.968;2024-02-21T07:06:02;7.40;99.90
34135;DHT22;20410;55.578;12.968;2024-02-21T07:08:28;7.40;99.90
34135;DHT22;20410;55.578;12.968;2024-02-21T07:10:54;7.30;99.90
34135;DHT22;20410;55.578;12.968;2024-02-21T07:13:19;7.20;99.90
34135;DHT22;20410;55.578;12.968;2024-02-21T07:15:47;7.20;99.90
34135;DHT22;20410;55.578;12.968;2024-02-21T07:18:13;7.20;99.90
34135;DHT22;20410;55.578;12.968;2024-02-21T07:20:38;7.20;99.90
34135;DHT22;20410;55.578;12.968;2024-02-21T07:23:07;7.20;99.90
34135;DHT22;20410;55.578;12.968;2024-02-21T07:25:32;7.30;99.90
34135;DHT22;20410;55.578;12.968;2024-02-21T07:27:58;7.10;99.90
34135;DHT22;20410;55.578;12.968;2024-02-21T07:30:23;7.10;99.90
34135;DHT22;20410;55.578;12.968;2024-02-21T07:32:50;7.10;99.90
34135;DHT22;20410;55.578;12.968;2024-02-21T07:35:17;7.10;99.90
34135;DHT22;20410;55.578;12.968;2024-02-21T07:37:42;7.20;99.90
34135;DHT22;20410;55.578;12.968;2024-02-21T07:40:15;7.30;99.90
34135;DHT22;20410;55.578;12.968;2024-02-21T07:42:41;7.30;80.70
34135;DHT22;20410;55.578;12.968;2024-02-21T07:45:08;7.20;80.50
34135;DHT22;20410;55.578;12.968;2024-02-21T07:47:34;7.30;79.00
34135;DHT22;20410;55.578;12.968;2024-02-21T07:49:59;7.30;68.80
34135;DHT22;20410;55.578;12.968;2024-02-21T07:52:25;7.40;55.00
34135;DHT22;20410;55.578;12.968;2024-02-21T07:54:51;7.30;39.10
34135;DHT22;20410;55.578;12.968;2024-02-21T07:57:16;7.30;40.90
34135;DHT22;20410;55.578;12.968;2024-02-21T07:59:42;7.30;52.30
34135;DHT22;20410;55.578;12.968;2024-02-21T08:02:08;7.30;38.50
34135;DHT22;20410;55.578;12.968;2024-02-21T08:04:34;7.20;32.60
34135;DHT22;20410;55.578;12.968;2024-02-21T08:06:59;7.20;31.10
34135;DHT22;20410;55.578;12.968;2024-02-21T08:09:28;7.20;31.90
34135;DHT22;20410;55.578;12.968;2024-02-21T08:11:54;7.20;34.80
34135;DHT22;20410;55.578;12.968;2024-02-21T08:14:20;7.20;35.00
34135;DHT22;20410;55.578;12.968;2024-02-21T08:16:46;7.20;31.00
34135;DHT22;20410;55.578;12.968;2024-02-21T08:19:11;7.20;33.00
34135;DHT22;20410;55.578;12.968;2024-02-21T08:21:37;7.10;38.70
34135;DHT22;20410;55.578;12.968;2024-02-21T08:24:02;7.10;50.70
34135;DHT22;20410;55.578;12.968;2024-02-21T08:26:28;7.10;63.70
34135;DHT22;20410;55.578;12.968;2024-02-21T08:28:56;7.10;68.20
34135;DHT22;20410;55.578;12.968;2024-02-21T08:31:25;7.10;78.40
34135;DHT22;20410;55.578;12.968;2024-02-21T08:33:57;7.00;85.00
34135;DHT22;20410;55.578;12.968;2024-02-21T08:36:31;7.00;92.60
34135;DHT22;20410;55.578;12.968;2024-02-21T08:38:58;7.00;99.90
34135;DHT22;20410;55.578;12.968;2024-02-21T08:41:24;7.00;99.90
34135;DHT22;20410;55.578;12.968;2024-02-21T08:43:51;7.00;98.50
34135;DHT22;20410;55.578;12.968;2024-02-21T08:46:17;7.00;99.90
34135;DHT22;20410;55.578;12.968;2024-02-21T08:48:43;7.00;99.90
34135;DHT22;20410;55.578;12.968;2024-02-21T08:51:09;7.10;99.90
34135;DHT22;20410;55.578;12.968;2024-02-21T08:53:34;7.10;99.90
34135;DHT22;20410;55.578;12.968;2024-02-21T08:56:00;7.10;99.90
34135;DHT22;20410;55.578;12.968;2024-02-21T08:58:25;7.10;99.90
34135;DHT22;20410;55.578;12.968;2024-02-21T09:00:52;7.00;95.50
34135;DHT22;20410;55.578;12.968;2024-02-21T09:03:17;7.00;97.40
34135;DHT22;20410;55.578;12.968;2024-02-21T09:05:45;6.90;99.90
34135;DHT22;20410;55.578;12.968;2024-02-21T09:08:11;6.90;99.90
34135;DHT22;20410;55.578;12.968;2024-02-21T09:10:36;6.90;99.90
34135;DHT22;20410;55.578;12.968;2024-02-21T09:13:02;6.90;99.90
34135;DHT22;20410;55.578;12.968;2024-02-21T09:15:29;6.90;99.90
34135;DHT22;20410;55.578;12.968;2024-02-21T09:17:54;6.90;99.90
34135;DHT22;20410;55.578;12.968;2024-02-21T09:20:20;6.90;99.90
34135;DHT22;20410;55.578;12.968;2024-02-21T09:22:45;6.90;99.90
34135;DHT22;20410;55.578;12.968;2024-02-21T09:25:11;6.90;99.40
34135;DHT22;20410;55.578;12.968;2024-02-21T09:27:38;6.90;99.90
34135;DHT22;20410;55.578;12.968;2024-02-21T09:30:05;7.00;99.90
34135;DHT22;20410;55.578;12.968;2024-02-21T09:32:31;7.00;89.90
34135;DHT22;20410;55.578;12.968;2024-02-21T09:34:58;7.00;94.20
34135;DHT22;20410;55.578;12.968;2024-02-21T09:37:24;7.00;87.50
34135;DHT22;20410;55.578;12.968;2024-02-21T09:39:49;7.00;78.50
34135;DHT22;20410;55.578;12.968;2024-02-21T09:42:20;7.00;65.80
34135;DHT22;20410;55.578;12.968;2024-02-21T09:44:46;6.90;57.60
34135;DHT22;20410;55.578;12.968;2024-02-21T09:47:26;7.00;78.00
34135;DHT22;20410;55.578;12.968;2024-02-21T09:50:00;7.00;59.00
34135;DHT22;20410;55.578;12.968;2024-02-21T09:52:27;7.00;75.30
34135;DHT22;20410;55.578;12.968;2024-02-21T09:54:54;6.90;71.40
34135;DHT22;20410;55.578;12.968;2024-02-21T09:57:20;7.00;60.90
34135;DHT22;20410;55.578;12.968;2024-02-21T09:59:48;7.00;54.00
34135;DHT22;20410;55.578;12.968;2024-02-21T10:02:15;7.00;41.40
34135;DHT22;20410;55.578;12.968;2024-02-21T10:04:41;7.00;30.30
34135;DHT22;20410;55.578;12.968;2024-02-21T10:07:07;7.00;44.40
34135;DHT22;20410;55.578;12.968;2024-02-21T10:09:33;7.10;43.30
34135;DHT22;20410;55.578;12.968;2024-02-21T10:12:11;7.10;38.20
34135;DHT22;20410;55.578;12.968;2024-02-21T10:14:37;7.20;32.10
34135;DHT22;20410;55.578;12.968;2024-02-21T10:17:03;7.30;22.40
34135;DHT22;20410;55.578;12.968;2024-02-21T10:19:34;7.30;25.20
34135;DHT22;20410;55.578;12.968;2024-02-21T10:22:09;7.40;38.30
34135;DHT22;20410;55.578;12.968;2024-02-21T10:24:36;7.50;33.90
34135;DHT22;20410;55.578;12.968;2024-02-21T10:27:08;7.60;24.60
34135;DHT22;20410;55.578;12.968;2024-02-21T10:29:36;7.70;41.60
34135;DHT22;20410;55.578;12.968;2024-02-21T10:32:13;7.90;27.50
34135;DHT22;20410;55.578;12.968;2024-02-21T10:34:40;8.00;24.80
34135;DHT22;20410;55.578;12.968;2024-02-21T10:37:10;8.10;36.20
34135;DHT22;20410;55.578;12.968;2024-02-21T10:39:40;8.20;26.20
34135;DHT22;20410;55.578;12.968;2024-02-21T10:42:06;8.20;1.00
34135;DHT22;20410;55.578;12.968;2024-02-21T10:44:35;8.20;1.00
34135;DHT22;20410;55.578;12.968;2024-02-21T10:47:09;8.20;1.00
34135;DHT22;20410;55.578;12.968;2024-02-21T10:49:42;8.40;2.80
34135;DHT22;20410;55.578;12.968;2024-02-21T10:52:16;8.40;1.00
34135;DHT22;20410;55.578;12.968;2024-02-21T10:54:44;8.50;1.00
34135;DHT22;20410;55.578;12.968;2024-02-21T10:57:13;8.50;1.00
34135;DHT22;20410;55.578;12.968;2024-02-21T10:59:44;8.60;1.00
34135;DHT22;20410;55.578;12.968;2024-02-21T11:02:10;8.70;1.00
34135;DHT22;20410;55.578;12.968;2024-02-21T11:04:36;8.60;1.00
34135;DHT22;20410;55.578;12.968;2024-02-21T11:07:05;8.60;1.00
34135;DHT22;20410;55.578;12.968;2024-02-21T11:09:32;8.60;1.00
34135;DHT22;20410;55.578;12.968;2024-02-21T11:11:58;8.60;1.00
34135;DHT22;20410;55.578;12.968;2024-02-21T11:14:26;8.60;1.00
34135;DHT22;20410;55.578;12.968;2024-02-21T11:16:55;8.60;1.00
34135;DHT22;20410;55.578;12.968;2024-02-21T11:19:22;8.60;1.00
34135;DHT22;20410;55.578;12.968;2024-02-21T11:21:49;8.60;1.00
34135;DHT22;20410;55.578;12.968;2024-02-21T11:24:29;8.50;1.00
34135;DHT22;20410;55.578;12.968;2024-02-21T11:29:53;8.60;1.00
34135;DHT22;20410;55.578;12.968;2024-02-21T11:32:20;8.70;1.00
34135;DHT22;20410;55.578;12.968;2024-02-21T11:35:03;8.70;1.00
34135;DHT22;20410;55.578;12.968;2024-02-21T11:37:30;8.70;1.00
34135;DHT22;20410;55.578;12.968;2024-02-21T11:39:59;8.70;1.00
34135;DHT22;20410;55.578;12.968;2024-02-21T11:42:26;8.70;1.00
34135;DHT22;20410;55.578;12.968;2024-02-21T11:44:52;8.70;1.00
34135;DHT22;20410;55.578;12.968;2024-02-21T11:47:18;8.80;1.00
34135;DHT22;20410;55.578;12.968;2024-02-21T11:49:46;8.70;1.00
34135;DHT22;20410;55.578;12.968;2024-02-21T11:52:12;8.60;1.00
34135;DHT22;20410;55.578;12.968;2024-02-21T11:54:41;8.60;1.00
34135;DHT22;20410;55.578;12.968;2024-02-21T11:57:06;8.60;1.00
34135;DHT22;20410;55.578;12.968;2024-02-21T11:59:33;8.50;1.00
34135;DHT22;20410;55.578;12.968;2024-02-21T12:02:02;8.50;1.00
34135;DHT22;20410;55.578;12.968;2024-02-21T12:04:29;8.40;1.00
34135;DHT22;20410;55.578;12.968;2024-02-21T12:06:57;8.50;1.00
34135;DHT22;20410;55.578;12.968;2024-02-21T12:09:24;8.60;1.00
34135;DHT22;20410;55.578;12.968;2024-02-21T12:12:03;8.70;1.00
34135;DHT22;20410;55.578;12.968;2024-02-21T12:14:34;8.90;1.00
34135;DHT22;20410;55.578;12.968;2024-02-21T12:17:01;8.90;1.00
34135;DHT22;20410;55.578;12.968;2024-02-21T12:19:30;8.90;1.00
34135;DHT22;20410;55.578;12.968;2024-02-21T12:21:55;9.00;1.00
34135;DHT22;20410;55.578;12.968;2024-02-21T12:24:27;8.90;1.00
34135;DHT22;20410;55.578;12.968;2024-02-21T12:26:54;8.90;1.00
34135;DHT22;20410;55.578;12.968;2024-02-21T12:29:20;8.90;1.00
34135;DHT22;20410;55.578;12.968;2024-02-21T12:31:46;9.00;1.00
34135;DHT22;20410;55.578;12.968;2024-02-21T12:34:12;9.10;1.00
34135;DHT22;20410;55.578;12.968;2024-02-21T12:36:45;9.20;1.00
34135;DHT22;20410;55.578;12.968;2024-02-21T12:39:13;9.20;1.00
34135;DHT22;20410;55.578;12.968;2024-02-21T12:41:42;9.20;1.00
34135;DHT22;20410;55.578;12.968;2024-02-21T12:44:10;9.20;1.00
34135;DHT22;20410;55.578;12.968;2024-02-21T12:46:37;9.10;1.00
34135;DHT22;20410;55.578;12.968;2024-02-21T12:49:03;9.10;1.00
34135;DHT22;20410;55.578;12.968;2024-02-21T12:51:36;9.20;1.00
34135;DHT22;20410;55.578;12.968;2024-02-21T12:54:15;9.20;1.00
34135;DHT22;20410;55.578;12.968;2024-02-21T12:56:40;9.20;1.00
34135;DHT22;20410;55.578;12.968;2024-02-21T12:59:06;9.20;1.00
34135;DHT22;20410;55.578;12.968;2024-02-21T13:01:35;9.30;1.00
34135;DHT22;20410;55.578;12.968;2024-02-21T13:04:01;9.40;1.00
34135;DHT22;20410;55.578;12.968;2024-02-21T13:06:27;9.50;1.00
34135;DHT22;20410;55.578;12.968;2024-02-21T13:08:55;9.70;1.00
34135;DHT22;20410;55.578;12.968;2024-02-21T13:11:21;9.70;1.00
34135;DHT22;20410;55.578;12.968;2024-02-21T13:13:47;9.80;1.00
34135;DHT22;20410;55.578;12.968;2024-02-21T13:16:21;9.80;1.00
34135;DHT22;20410;55.578;12.968;2024-02-21T13:19:19;9.90;1.00
34135;DHT22;20410;55.578;12.968;2024-02-21T13:21:47;9.80;1.00
34135;DHT22;20410;55.578;12.968;2024-02-21T13:24:15;9.90;1.00
34135;DHT22;20410;55.578;12.968;2024-02-21T13:26:41;9.90;1.00
34135;DHT22;20410;55.578;12.968;2024-02-21T13:29:07;9.90;1.00
34135;DHT22;20410;55.578;12.968;2024-02-21T13:31:32;10.00;1.00
34135;DHT22;20410;55.578;12.968;2024-02-21T13:33:58;10.00;1.00
34135;DHT22;20410;55.578;12.968;2024-02-21T13:36:27;10.00;1.00
34135;DHT22;20410;55.578;12.968;2024-02-21T13:39:24;10.00;1.00
34135;DHT22;20410;55.578;12.968;2024-02-21T13:42:16;10.00;1.00
34135;DHT22;20410;55.578;12.968;2024-02-21T13:45:17;9.90;1.00
34135;DHT22;20410;55.578;12.968;2024-02-21T13:54:32;9.90;1.00
34135;DHT22;20410;55.578;12.968;2024-02-21T13:56:58;10.00;1.00
34135;DHT22;20410;55.578;12.968;2024-02-21T13:59:24;10.00;1.00
34135;DHT22;20410;55.578;12.968;2024-02-21T14:01:50;9.90;1.00
34135;DHT22;20410;55.578;12.968;2024-02-21T14:04:15;9.90;1.00
34135;DHT22;20410;55.578;12.968;2024-02-21T14:06:41;9.80;1.00
34135;DHT22;20410;55.578;12.968;2024-02-21T14:09:11;9.70;1.00
34135;DHT22;20410;55.578;12.968;2024-02-21T14:11:37;9.50;1.00
34135;DHT22;20410;55.578;12.968;2024-02-21T14:14:09;9.50;1.00
34135;DHT22;20410;55.578;12.968;2024-02-21T14:16:35;9.40;1.00
34135;DHT22;20410;55.578;12.968;2024-02-21T14:19:05;9.40;1.00
34135;DHT22;20410;55.578;12.968;2024-02-21T14:21:32;9.30;1.00
34135;DHT22;20410;55.578;12.968;2024-02-21T14:27:33;9.30;1.00
34135;DHT22;20410;55.578;12.968;2024-02-21T14:30:20;9.30;1.00
34135;DHT22;20410;55.578;12.968;2024-02-21T14:32:51;9.40;1.00
34135;DHT22;20410;55.578;12.968;2024-02-21T14:35:17;9.40;1.00
34135;DHT22;20410;55.578;12.968;2024-02-21T14:37:48;9.30;1.00
34135;DHT22;20410;55.578;12.968;2024-02-21T14:40:47;9.30;1.00
34135;DHT22;20410;55.578;12.968;2024-02-21T14:44:06;9.30;1.00
34135;DHT22;20410;55.578;12.968;2024-02-21T14:47:16;9.20;1.00
34135;DHT22;20410;55.578;12.968;2024-02-21T14:49:53;9.20;1.00
34135;DHT22;20410;55.578;12.968;2024-02-21T14:52:20;9.20;1.00
34135;DHT22;20410;55.578;12.968;2024-02-21T14:54:55;9.20;1.00
34135;DHT22;20410;55.578;12.968;2024-02-21T14:57:21;9.30;1.00
34135;DHT22;20410;55.578;12.968;2024-02-21T14:59:49;9.20;1.00
34135;DHT22;20410;55.578;12.968;2024-02-21T15:02:19;9.20;1.00
34135;DHT22;20410;55.578;12.968;2024-02-21T15:04:48;9.20;1.00
34135;DHT22;20410;55.578;12.968;2024-02-21T15:07:36;9.20;1.00
34135;DHT22;20410;55.578;12.968;2024-02-21T15:13:19;9.00;1.00
34135;DHT22;20410;55.578;12.968;2024-02-21T15:15:45;9.00;1.00
34135;DHT22;20410;55.578;12.968;2024-02-21T15:18:19;8.90;1.00
34135;DHT22;20410;55.578;12.968;2024-02-21T15:20:44;8.90;1.00
34135;DHT22;20410;55.578;12.968;2024-02-21T15:23:10;8.90;1.00
34135;DHT22;20410;55.578;12.968;2024-02-21T15:25:36;8.90;1.00
34135;DHT22;20410;55.578;12.968;2024-02-21T15:28:03;9.00;1.00
34135;DHT22;20410;55.578;12.968;2024-02-21T15:30:29;8.90;1.00
34135;DHT22;20410;55.578;12.968;2024-02-21T15:32:58;8.80;1.00
34135;DHT22;20410;55.578;12.968;2024-02-21T15:35:28;8.70;1.00
34135;DHT22;20410;55.578;12.968;2024-02-21T15:37:54;8.60;1.00
34135;DHT22;20410;55.578;12.968;2024-02-21T15:40:21;8.60;1.00
34135;DHT22;20410;55.578;12.968;2024-02-21T15:42:47;8.60;1.00
34135;DHT22;20410;55.578;12.968;2024-02-21T15:45:13;8.50;1.00
34135;DHT22;20410;55.578;12.968;2024-02-21T15:47:42;8.50;1.00
34135;DHT22;20410;55.578;12.968;2024-02-21T15:50:08;8.50;1.00
34135;DHT22;20410;55.578;12.968;2024-02-21T15:52:36;8.40;1.00
34135;DHT22;20410;55.578;12.968;2024-02-21T15:55:05;8.30;1.00
34135;DHT22;20410;55.578;12.968;2024-02-21T15:57:32;8.20;1.00